sensor_id;sensor_type;location;lat;lon;timestamp;P1;durP1;ratioP1;P2;durP2;ratioP2
18174;SDS011;9212;50.894;16.714;2022-11-04T00:01:37;22.03;;;10.43;;
18174;SDS011;9212;50.894;16.714;2022-11-04T00:04:05;19.07;;;9.40;;
18174;SDS011;9212;50.894;16.714;2022-11-04T00:06:34;18.03;;;8.93;;
18174;SDS011;9212;50.894;16.714;2022-11-04T00:09:02;23.57;;;9.43;;
18174;SDS011;9212;50.894;16.714;2022-11-04T00:11:30;18.33;;;9.57;;
18174;SDS011;9212;50.894;16.714;2022-11-04T00:14:15;18.57;;;8.20;;
18174;SDS011;9212;50.894;16.714;2022-11-04T00:16:43;16.93;;;9.10;;
18174;SDS011;9212;50.894;16.714;2022-11-04T00:19:27;17.07;;;8.33;;
18174;SDS011;9212;50.894;16.714;2022-11-04T00:22:15;22.93;;;8.57;;
18174;SDS011;9212;50.894;16.714;2022-11-04T00:25:00;18.63;;;8.83;;
18174;SDS011;9212;50.894;16.714;2022-11-04T00:27:45;19.17;;;7.87;;
18174;SDS011;9212;50.894;16.714;2022-11-04T00:30:29;19.87;;;8.43;;
18174;SDS011;9212;50.894;16.714;2022-11-04T00:32:56;15.97;;;7.93;;
18174;SDS011;9212;50.894;16.714;2022-11-04T00:35:46;20.57;;;9.00;;
18174;SDS011;9212;50.894;16.714;2022-11-04T00:38:15;19.03;;;9.70;;
18174;SDS011;9212;50.894;16.714;2022-11-04T00:40:42;22.57;;;10.67;;
18174;SDS011;9212;50.894;16.714;2022-11-04T00:43:09;20.43;;;10.27;;
18174;SDS011;9212;50.894;16.714;2022-11-04T00:45:36;20.53;;;10.50;;
18174;SDS011;9212;50.894;16.714;2022-11-04T00:48:05;24.40;;;11.03;;
18174;SDS011;9212;50.894;16.714;2022-11-04T00:50:32;26.63;;;10.20;;
18174;SDS011;9212;50.894;16.714;2022-11-04T00:52:59;19.30;;;11.07;;
18174;SDS011;9212;50.894;16.714;2022-11-04T00:55:27;22.83;;;10.20;;
18174;SDS011;9212;50.894;16.714;2022-11-04T00:57:54;17.87;;;10.17;;
18174;SDS011;9212;50.894;16.714;2022-11-04T01:00:22;19.43;;;9.83;;
18174;SDS011;9212;50.894;16.714;2022-11-04T01:02:49;19.23;;;9.87;;
18174;SDS011;9212;50.894;16.714;2022-11-04T01:05:16;19.73;;;10.00;;
18174;SDS011;9212;50.894;16.714;2022-11-04T01:07:43;20.83;;;9.37;;
18174;SDS011;9212;50.894;16.714;2022-11-04T01:10:10;18.77;;;9.17;;
18174;SDS011;9212;50.894;16.714;2022-11-04T01:12:38;21.27;;;10.20;;
18174;SDS011;9212;50.894;16.714;2022-11-04T01:15:05;23.30;;;9.73;;
18174;SDS011;9212;50.894;16.714;2022-11-04T01:17:33;20.07;;;10.80;;
18174;SDS011;9212;50.894;16.714;2022-11-04T01:19:59;23.30;;;10.83;;
18174;SDS011;9212;50.894;16.714;2022-11-04T01:22:27;21.97;;;10.37;;
18174;SDS011;9212;50.894;16.714;2022-11-04T01:24:54;17.93;;;9.37;;
18174;SDS011;9212;50.894;16.714;2022-11-04T01:27:23;19.83;;;10.13;;
18174;SDS011;9212;50.894;16.714;2022-11-04T01:29:52;21.67;;;9.53;;
18174;SDS011;9212;50.894;16.714;2022-11-04T01:32:18;21.53;;;10.13;;
18174;SDS011;9212;50.894;16.714;2022-11-04T01:34:45;20.37;;;10.57;;
18174;SDS011;9212;50.894;16.714;2022-11-04T01:37:12;26.80;;;10.37;;
18174;SDS011;9212;50.894;16.714;2022-11-04T01:39:39;21.53;;;10.47;;
18174;SDS011;9212;50.894;16.714;2022-11-04T01:42:08;18.00;;;10.43;;
18174;SDS011;9212;50.894;16.714;2022-11-04T01:44:45;19.47;;;10.60;;
18174;SDS011;9212;50.894;16.714;2022-11-04T01:47:17;19.90;;;11.00;;
18174;SDS011;9212;50.894;16.714;2022-11-04T01:49:47;21.27;;;10.80;;
18174;SDS011;9212;50.894;16.714;2022-11-04T01:52:17;21.97;;;10.93;;
18174;SDS011;9212;50.894;16.714;2022-11-04T01:54:48;19.30;;;9.80;;
18174;SDS011;9212;50.894;16.714;2022-11-04T01:57:21;27.30;;;10.37;;
18174;SDS011;9212;50.894;16.714;2022-11-04T01:59:52;22.90;;;9.57;;
18174;SDS011;9212;50.894;16.714;2022-11-04T02:02:21;20.77;;;10.97;;
18174;SDS011;9212;50.894;16.714;2022-11-04T02:04:48;25.07;;;11.07;;
18174;SDS011;9212;50.894;16.714;2022-11-04T02:07:15;18.77;;;10.17;;
18174;SDS011;9212;50.894;16.714;2022-11-04T02:09:42;24.17;;;10.67;;
18174;SDS011;9212;50.894;16.714;2022-11-04T02:12:10;19.97;;;9.87;;
18174;SDS011;9212;50.894;16.714;2022-11-04T02:14:54;25.87;;;10.27;;
18174;SDS011;9212;50.894;16.714;2022-11-04T02:17:28;22.53;;;9.63;;
18174;SDS011;9212;50.894;16.714;2022-11-04T02:23:13;21.80;;;10.27;;
18174;SDS011;9212;50.894;16.714;2022-11-04T02:29:35;20.37;;;10.40;;
18174;SDS011;9212;50.894;16.714;2022-11-04T02:32:11;24.97;;;11.00;;
18174;SDS011;9212;50.894;16.714;2022-11-04T02:34:49;24.57;;;11.33;;
18174;SDS011;9212;50.894;16.714;2022-11-04T02:37:30;20.87;;;10.00;;
18174;SDS011;9212;50.894;16.714;2022-11-04T02:40:07;19.97;;;10.23;;
18174;SDS011;9212;50.894;16.714;2022-11-04T02:42:47;24.67;;;11.17;;
18174;SDS011;9212;50.894;16.714;2022-11-04T02:45:22;23.57;;;11.17;;
18174;SDS011;9212;50.894;16.714;2022-11-04T02:47:56;24.53;;;10.80;;
18174;SDS011;9212;50.894;16.714;2022-11-04T02:50:29;26.90;;;12.40;;
18174;SDS011;9212;50.894;16.714;2022-11-04T02:53:00;23.23;;;10.93;;
18174;SDS011;9212;50.894;16.714;2022-11-04T02:55:32;19.87;;;10.13;;
18174;SDS011;9212;50.894;16.714;2022-11-04T02:58:04;23.03;;;10.83;;
18174;SDS011;9212;50.894;16.714;2022-11-04T03:00:35;22.43;;;11.33;;
18174;SDS011;9212;50.894;16.714;2022-11-04T03:03:08;25.27;;;12.10;;
18174;SDS011;9212;50.894;16.714;2022-11-04T03:05:37;24.27;;;11.77;;
18174;SDS011;9212;50.894;16.714;2022-11-04T03:08:07;23.77;;;10.80;;
18174;SDS011;9212;50.894;16.714;2022-11-04T03:10:40;23.77;;;11.00;;
18174;SDS011;9212;50.894;16.714;2022-11-04T03:13:10;24.30;;;11.37;;
18174;SDS011;9212;50.894;16.714;2022-11-04T03:15:45;24.47;;;12.27;;
18174;SDS011;9212;50.894;16.714;2022-11-04T03:18:17;25.80;;;11.53;;
18174;SDS011;9212;50.894;16.714;2022-11-04T03:20:49;25.30;;;11.43;;
18174;SDS011;9212;50.894;16.714;2022-11-04T03:23:18;26.63;;;13.10;;
18174;SDS011;9212;50.894;16.714;2022-11-04T03:25:45;26.57;;;11.27;;
18174;SDS011;9212;50.894;16.714;2022-11-04T03:28:20;22.43;;;11.33;;
18174;SDS011;9212;50.894;16.714;2022-11-04T03:30:54;23.40;;;11.60;;
18174;SDS011;9212;50.894;16.714;2022-11-04T03:33:27;28.83;;;12.40;;
18174;SDS011;9212;50.894;16.714;2022-11-04T03:36:03;25.40;;;11.90;;
18174;SDS011;9212;50.894;16.714;2022-11-04T03:38:31;29.07;;;11.83;;
18174;SDS011;9212;50.894;16.714;2022-11-04T03:40:58;29.87;;;12.50;;
18174;SDS011;9212;50.894;16.714;2022-11-04T03:43:28;26.80;;;12.63;;
18174;SDS011;9212;50.894;16.714;2022-11-04T03:45:59;29.07;;;12.53;;
18174;SDS011;9212;50.894;16.714;2022-11-04T03:48:26;29.37;;;11.60;;
18174;SDS011;9212;50.894;16.714;2022-11-04T03:50:53;31.60;;;12.47;;
18174;SDS011;9212;50.894;16.714;2022-11-04T03:53:21;33.10;;;13.40;;
18174;SDS011;9212;50.894;16.714;2022-11-04T03:55:57;30.37;;;12.27;;
18174;SDS011;9212;50.894;16.714;2022-11-04T03:58:42;27.63;;;12.67;;
18174;SDS011;9212;50.894;16.714;2022-11-04T04:01:19;31.83;;;12.47;;
18174;SDS011;9212;50.894;16.714;2022-11-04T04:03:54;31.73;;;12.30;;
18174;SDS011;9212;50.894;16.714;2022-11-04T04:06:25;32.27;;;14.10;;
18174;SDS011;9212;50.894;16.714;2022-11-04T04:08:57;27.40;;;13.03;;
18174;SDS011;9212;50.894;16.714;2022-11-04T04:11:33;33.20;;;12.70;;
18174;SDS011;9212;50.894;16.714;2022-11-04T04:14:07;32.33;;;13.20;;
18174;SDS011;9212;50.894;16.714;2022-11-04T04:17:05;27.30;;;12.13;;
18174;SDS011;9212;50.894;16.714;2022-11-04T04:19:36;32.17;;;13.40;;
18174;SDS011;9212;50.894;16.714;2022-11-04T04:22:06;27.47;;;12.43;;
18174;SDS011;9212;50.894;16.714;2022-11-04T04:24:36;32.73;;;13.53;;
18174;SDS011;9212;50.894;16.714;2022-11-04T04:27:25;36.60;;;13.03;;
18174;SDS011;9212;50.894;16.714;2022-11-04T04:29:58;26.40;;;11.63;;
18174;SDS011;9212;50.894;16.714;2022-11-04T04:32:31;29.63;;;11.53;;
18174;SDS011;9212;50.894;16.714;2022-11-04T04:35:02;25.13;;;11.50;;
18174;SDS011;9212;50.894;16.714;2022-11-04T04:37:48;30.27;;;12.93;;
18174;SDS011;9212;50.894;16.714;2022-11-04T04:40:17;26.80;;;11.67;;
18174;SDS011;9212;50.894;16.714;2022-11-04T04:43:07;30.83;;;12.50;;
18174;SDS011;9212;50.894;16.714;2022-11-04T04:45:58;27.43;;;11.83;;
18174;SDS011;9212;50.894;16.714;2022-11-04T04:48:28;29.83;;;12.67;;
18174;SDS011;9212;50.894;16.714;2022-11-04T04:50:55;33.10;;;12.03;;
18174;SDS011;9212;50.894;16.714;2022-11-04T04:53:26;26.80;;;11.83;;
18174;SDS011;9212;50.894;16.714;2022-11-04T04:55:53;28.50;;;12.77;;
18174;SDS011;9212;50.894;16.714;2022-11-04T04:58:20;28.33;;;12.20;;
18174;SDS011;9212;50.894;16.714;2022-11-04T05:00:47;24.50;;;11.57;;
18174;SDS011;9212;50.894;16.714;2022-11-04T05:03:14;23.87;;;10.63;;
18174;SDS011;9212;50.894;16.714;2022-11-04T05:05:42;24.10;;;11.37;;
18174;SDS011;9212;50.894;16.714;2022-11-04T05:08:09;28.17;;;10.70;;
18174;SDS011;9212;50.894;16.714;2022-11-04T05:10:36;29.60;;;12.57;;
18174;SDS011;9212;50.894;16.714;2022-11-04T05:13:03;24.63;;;11.50;;
18174;SDS011;9212;50.894;16.714;2022-11-04T05:15:47;25.50;;;10.97;;
18174;SDS011;9212;50.894;16.714;2022-11-04T05:18:14;27.37;;;11.60;;
18174;SDS011;9212;50.894;16.714;2022-11-04T05:20:42;21.87;;;10.63;;
18174;SDS011;9212;50.894;16.714;2022-11-04T05:23:09;27.97;;;11.57;;
18174;SDS011;9212;50.894;16.714;2022-11-04T05:25:37;22.50;;;10.13;;
18174;SDS011;9212;50.894;16.714;2022-11-04T05:28:05;24.87;;;11.83;;
18174;SDS011;9212;50.894;16.714;2022-11-04T05:30:32;26.73;;;11.83;;
18174;SDS011;9212;50.894;16.714;2022-11-04T05:32:59;29.83;;;11.93;;
18174;SDS011;9212;50.894;16.714;2022-11-04T05:35:26;24.57;;;11.23;;
18174;SDS011;9212;50.894;16.714;2022-11-04T05:37:55;21.07;;;11.00;;
18174;SDS011;9212;50.894;16.714;2022-11-04T05:40:22;26.30;;;11.40;;
18174;SDS011;9212;50.894;16.714;2022-11-04T05:42:49;26.97;;;11.43;;
18174;SDS011;9212;50.894;16.714;2022-11-04T05:45:16;21.93;;;10.83;;
18174;SDS011;9212;50.894;16.714;2022-11-04T05:47:43;25.90;;;12.03;;
18174;SDS011;9212;50.894;16.714;2022-11-04T05:50:09;24.63;;;11.40;;
18174;SDS011;9212;50.894;16.714;2022-11-04T05:52:36;25.77;;;10.80;;
18174;SDS011;9212;50.894;16.714;2022-11-04T05:55:05;19.87;;;10.20;;
18174;SDS011;9212;50.894;16.714;2022-11-04T05:57:32;21.57;;;10.50;;
18174;SDS011;9212;50.894;16.714;2022-11-04T06:00:02;25.03;;;11.20;;
18174;SDS011;9212;50.894;16.714;2022-11-04T06:02:30;23.07;;;10.87;;
18174;SDS011;9212;50.894;16.714;2022-11-04T06:04:57;22.53;;;10.63;;
18174;SDS011;9212;50.894;16.714;2022-11-04T06:07:24;21.93;;;10.67;;
18174;SDS011;9212;50.894;16.714;2022-11-04T06:09:52;18.90;;;10.17;;
18174;SDS011;9212;50.894;16.714;2022-11-04T06:12:20;23.97;;;10.37;;
18174;SDS011;9212;50.894;16.714;2022-11-04T06:14:47;18.67;;;9.67;;
18174;SDS011;9212;50.894;16.714;2022-11-04T06:17:14;21.77;;;9.87;;
18174;SDS011;9212;50.894;16.714;2022-11-04T06:19:42;22.20;;;10.17;;
18174;SDS011;9212;50.894;16.714;2022-11-04T06:22:09;19.13;;;10.33;;
18174;SDS011;9212;50.894;16.714;2022-11-04T06:24:37;17.73;;;9.43;;
18174;SDS011;9212;50.894;16.714;2022-11-04T06:27:04;16.83;;;9.00;;
18174;SDS011;9212;50.894;16.714;2022-11-04T06:29:32;18.13;;;9.87;;
18174;SDS011;9212;50.894;16.714;2022-11-04T06:32:00;20.73;;;8.90;;
18174;SDS011;9212;50.894;16.714;2022-11-04T06:34:27;19.77;;;10.33;;
18174;SDS011;9212;50.894;16.714;2022-11-04T06:36:54;18.63;;;8.43;;
18174;SDS011;9212;50.894;16.714;2022-11-04T06:39:21;15.77;;;8.47;;
18174;SDS011;9212;50.894;16.714;2022-11-04T06:41:48;15.17;;;8.53;;
18174;SDS011;9212;50.894;16.714;2022-11-04T06:44:14;17.47;;;8.63;;
18174;SDS011;9212;50.894;16.714;2022-11-04T06:46:43;13.83;;;8.80;;
18174;SDS011;9212;50.894;16.714;2022-11-04T06:49:11;17.20;;;9.23;;
18174;SDS011;9212;50.894;16.714;2022-11-04T06:51:39;16.37;;;8.90;;
18174;SDS011;9212;50.894;16.714;2022-11-04T06:54:06;19.70;;;8.73;;
18174;SDS011;9212;50.894;16.714;2022-11-04T06:56:33;18.37;;;9.33;;
18174;SDS011;9212;50.894;16.714;2022-11-04T06:59:00;13.77;;;8.20;;
18174;SDS011;9212;50.894;16.714;2022-11-04T07:01:27;19.17;;;9.03;;
18174;SDS011;9212;50.894;16.714;2022-11-04T07:03:58;18.93;;;8.87;;
18174;SDS011;9212;50.894;16.714;2022-11-04T07:06:26;15.07;;;8.30;;
18174;SDS011;9212;50.894;16.714;2022-11-04T07:08:55;17.87;;;8.90;;
18174;SDS011;9212;50.894;16.714;2022-11-04T07:11:24;16.17;;;9.20;;
18174;SDS011;9212;50.894;16.714;2022-11-04T07:13:52;16.63;;;9.33;;
18174;SDS011;9212;50.894;16.714;2022-11-04T07:16:19;17.50;;;9.07;;
18174;SDS011;9212;50.894;16.714;2022-11-04T07:18:45;15.03;;;8.40;;
18174;SDS011;9212;50.894;16.714;2022-11-04T07:21:14;23.30;;;10.30;;
18174;SDS011;9212;50.894;16.714;2022-11-04T07:23:41;23.63;;;10.73;;
18174;SDS011;9212;50.894;16.714;2022-11-04T07:26:09;17.03;;;8.23;;
18174;SDS011;9212;50.894;16.714;2022-11-04T07:28:37;22.00;;;10.10;;
18174;SDS011;9212;50.894;16.714;2022-11-04T07:31:04;16.87;;;7.90;;
18174;SDS011;9212;50.894;16.714;2022-11-04T07:33:33;44.00;;;17.10;;
18174;SDS011;9212;50.894;16.714;2022-11-04T07:36:02;38.73;;;17.30;;
18174;SDS011;9212;50.894;16.714;2022-11-04T07:38:31;24.77;;;12.43;;
18174;SDS011;9212;50.894;16.714;2022-11-04T07:40:58;21.90;;;11.17;;
18174;SDS011;9212;50.894;16.714;2022-11-04T07:43:26;30.47;;;14.13;;
18174;SDS011;9212;50.894;16.714;2022-11-04T07:46:00;24.20;;;11.90;;
18174;SDS011;9212;50.894;16.714;2022-11-04T07:48:27;24.50;;;12.60;;
18174;SDS011;9212;50.894;16.714;2022-11-04T07:50:55;29.07;;;13.60;;
18174;SDS011;9212;50.894;16.714;2022-11-04T07:53:23;18.73;;;10.80;;
18174;SDS011;9212;50.894;16.714;2022-11-04T07:55:52;21.90;;;12.07;;
18174;SDS011;9212;50.894;16.714;2022-11-04T07:58:18;22.57;;;11.60;;
18174;SDS011;9212;50.894;16.714;2022-11-04T08:00:46;21.77;;;11.93;;
18174;SDS011;9212;50.894;16.714;2022-11-04T08:03:13;21.43;;;11.63;;
18174;SDS011;9212;50.894;16.714;2022-11-04T08:05:40;20.57;;;11.07;;
18174;SDS011;9212;50.894;16.714;2022-11-04T08:08:07;22.00;;;12.33;;
18174;SDS011;9212;50.894;16.714;2022-11-04T08:10:34;19.77;;;10.27;;
18174;SDS011;9212;50.894;16.714;2022-11-04T08:13:02;22.87;;;11.07;;
18174;SDS011;9212;50.894;16.714;2022-11-04T08:15:29;24.03;;;10.90;;
18174;SDS011;9212;50.894;16.714;2022-11-04T08:17:56;25.57;;;12.40;;
18174;SDS011;9212;50.894;16.714;2022-11-04T08:20:23;22.50;;;12.30;;
18174;SDS011;9212;50.894;16.714;2022-11-04T08:22:50;36.00;;;14.77;;
18174;SDS011;9212;50.894;16.714;2022-11-04T08:25:17;22.73;;;12.23;;
18174;SDS011;9212;50.894;16.714;2022-11-04T08:27:44;27.70;;;11.93;;
18174;SDS011;9212;50.894;16.714;2022-11-04T08:30:12;27.27;;;13.60;;
18174;SDS011;9212;50.894;16.714;2022-11-04T08:32:39;24.70;;;12.50;;
18174;SDS011;9212;50.894;16.714;2022-11-04T08:35:08;30.57;;;13.57;;
18174;SDS011;9212;50.894;16.714;2022-11-04T08:37:36;26.50;;;13.23;;
18174;SDS011;9212;50.894;16.714;2022-11-04T08:40:04;28.30;;;14.20;;
18174;SDS011;9212;50.894;16.714;2022-11-04T08:42:32;30.47;;;14.17;;
18174;SDS011;9212;50.894;16.714;2022-11-04T08:44:59;29.40;;;14.33;;
18174;SDS011;9212;50.894;16.714;2022-11-04T08:47:28;38.27;;;14.43;;
18174;SDS011;9212;50.894;16.714;2022-11-04T08:49:55;34.17;;;14.77;;
18174;SDS011;9212;50.894;16.714;2022-11-04T08:52:23;35.00;;;15.67;;
18174;SDS011;9212;50.894;16.714;2022-11-04T08:54:52;32.27;;;14.33;;
18174;SDS011;9212;50.894;16.714;2022-11-04T08:57:19;30.57;;;13.47;;
18174;SDS011;9212;50.894;16.714;2022-11-04T08:59:46;31.13;;;14.67;;
18174;SDS011;9212;50.894;16.714;2022-11-04T09:02:16;38.17;;;15.47;;
18174;SDS011;9212;50.894;16.714;2022-11-04T09:04:45;28.13;;;15.13;;
18174;SDS011;9212;50.894;16.714;2022-11-04T09:07:17;28.87;;;14.30;;
18174;SDS011;9212;50.894;16.714;2022-11-04T09:09:45;33.03;;;14.83;;
18174;SDS011;9212;50.894;16.714;2022-11-04T09:12:12;27.43;;;12.87;;
18174;SDS011;9212;50.894;16.714;2022-11-04T09:14:43;28.27;;;14.10;;
18174;SDS011;9212;50.894;16.714;2022-11-04T09:17:13;26.80;;;12.40;;
18174;SDS011;9212;50.894;16.714;2022-11-04T09:19:45;22.63;;;11.00;;
18174;SDS011;9212;50.894;16.714;2022-11-04T09:22:12;24.57;;;11.53;;
18174;SDS011;9212;50.894;16.714;2022-11-04T09:24:39;27.43;;;11.93;;
18174;SDS011;9212;50.894;16.714;2022-11-04T09:27:06;23.63;;;11.03;;
18174;SDS011;9212;50.894;16.714;2022-11-04T09:29:34;21.87;;;11.13;;
18174;SDS011;9212;50.894;16.714;2022-11-04T09:32:01;19.97;;;9.67;;
18174;SDS011;9212;50.894;16.714;2022-11-04T09:34:29;15.10;;;8.60;;
18174;SDS011;9212;50.894;16.714;2022-11-04T09:36:57;17.40;;;9.00;;
18174;SDS011;9212;50.894;16.714;2022-11-04T09:39:25;18.37;;;9.27;;
18174;SDS011;9212;50.894;16.714;2022-11-04T09:42:05;16.47;;;8.87;;
18174;SDS011;9212;50.894;16.714;2022-11-04T09:44:50;15.10;;;8.90;;
18174;SDS011;9212;50.894;16.714;2022-11-04T09:47:22;15.73;;;8.40;;
18174;SDS011;9212;50.894;16.714;2022-11-04T09:49:52;14.63;;;7.50;;
18174;SDS011;9212;50.894;16.714;2022-11-04T09:52:24;17.97;;;8.63;;
18174;SDS011;9212;50.894;16.714;2022-11-04T09:54:55;26.07;;;10.80;;
18174;SDS011;9212;50.894;16.714;2022-11-04T09:57:31;28.63;;;12.87;;
18174;SDS011;9212;50.894;16.714;2022-11-04T09:59:59;28.57;;;12.33;;
18174;SDS011;9212;50.894;16.714;2022-11-04T10:02:29;25.73;;;12.30;;
18174;SDS011;9212;50.894;16.714;2022-11-04T10:05:15;25.70;;;12.83;;
18174;SDS011;9212;50.894;16.714;2022-11-04T10:07:59;27.47;;;13.07;;
18174;SDS011;9212;50.894;16.714;2022-11-04T10:10:48;26.20;;;12.83;;
18174;SDS011;9212;50.894;16.714;2022-11-04T10:13:27;24.13;;;11.93;;
18174;SDS011;9212;50.894;16.714;2022-11-04T10:16:07;25.50;;;11.63;;
18174;SDS011;9212;50.894;16.714;2022-11-04T10:18:53;23.03;;;11.67;;
18174;SDS011;9212;50.894;16.714;2022-11-04T10:21:43;24.57;;;11.27;;
18174;SDS011;9212;50.894;16.714;2022-11-04T10:24:22;20.47;;;11.57;;
18174;SDS011;9212;50.894;16.714;2022-11-04T10:26:56;22.30;;;11.67;;
18174;SDS011;9212;50.894;16.714;2022-11-04T10:29:27;20.23;;;10.70;;
18174;SDS011;9212;50.894;16.714;2022-11-04T10:31:59;21.30;;;11.07;;
18174;SDS011;9212;50.894;16.714;2022-11-04T10:34:30;21.57;;;11.80;;
18174;SDS011;9212;50.894;16.714;2022-11-04T10:37:01;22.37;;;12.03;;
18174;SDS011;9212;50.894;16.714;2022-11-04T10:39:31;26.37;;;12.90;;
18174;SDS011;9212;50.894;16.714;2022-11-04T10:42:02;24.25;;;12.65;;
18174;SDS011;9212;50.894;16.714;2022-11-04T10:44:31;34.17;;;14.03;;
18174;SDS011;9212;50.894;16.714;2022-11-04T10:49:59;29.33;;;13.90;;
18174;SDS011;9212;50.894;16.714;2022-11-04T10:52:38;27.30;;;13.48;;
18174;SDS011;9212;50.894;16.714;2022-11-04T10:55:10;36.08;;;14.38;;
18174;SDS011;9212;50.894;16.714;2022-11-04T10:57:45;26.73;;;12.43;;
18174;SDS011;9212;50.894;16.714;2022-11-04T11:03:01;26.63;;;13.00;;
18174;SDS011;9212;50.894;16.714;2022-11-04T11:05:28;26.20;;;13.77;;
18174;SDS011;9212;50.894;16.714;2022-11-04T11:07:56;30.83;;;12.93;;
18174;SDS011;9212;50.894;16.714;2022-11-04T11:10:25;23.30;;;11.98;;
18174;SDS011;9212;50.894;16.714;2022-11-04T11:12:53;22.48;;;12.07;;
18174;SDS011;9212;50.894;16.714;2022-11-04T11:15:30;22.83;;;11.43;;
18174;SDS011;9212;50.894;16.714;2022-11-04T11:18:11;20.48;;;11.30;;
18174;SDS011;9212;50.894;16.714;2022-11-04T11:20:40;22.90;;;11.25;;
18174;SDS011;9212;50.894;16.714;2022-11-04T11:26:02;20.95;;;10.27;;
18174;SDS011;9212;50.894;16.714;2022-11-04T11:28:31;28.75;;;11.77;;
18174;SDS011;9212;50.894;16.714;2022-11-04T11:31:02;24.35;;;10.95;;
18174;SDS011;9212;50.894;16.714;2022-11-04T11:33:39;23.60;;;11.93;;
18174;SDS011;9212;50.894;16.714;2022-11-04T11:36:14;22.88;;;11.45;;
18174;SDS011;9212;50.894;16.714;2022-11-04T11:38:50;26.80;;;11.38;;
18174;SDS011;9212;50.894;16.714;2022-11-04T11:41:21;19.30;;;10.60;;
18174;SDS011;9212;50.894;16.714;2022-11-04T11:43:55;18.52;;;10.82;;
18174;SDS011;9212;50.894;16.714;2022-11-04T11:46:26;19.95;;;10.63;;
18174;SDS011;9212;50.894;16.714;2022-11-04T11:48:55;19.35;;;10.63;;
18174;SDS011;9212;50.894;16.714;2022-11-04T11:51:26;20.45;;;10.88;;
18174;SDS011;9212;50.894;16.714;2022-11-04T11:54:11;21.40;;;10.25;;
18174;SDS011;9212;50.894;16.714;2022-11-04T11:56:48;21.50;;;11.27;;
18174;SDS011;9212;50.894;16.714;2022-11-04T11:59:23;20.55;;;10.90;;
18174;SDS011;9212;50.894;16.714;2022-11-04T12:01:56;18.75;;;10.85;;
18174;SDS011;9212;50.894;16.714;2022-11-04T12:04:33;20.33;;;10.82;;
18174;SDS011;9212;50.894;16.714;2022-11-04T12:07:03;18.33;;;10.38;;
18174;SDS011;9212;50.894;16.714;2022-11-04T12:09:38;23.30;;;11.00;;
18174;SDS011;9212;50.894;16.714;2022-11-04T12:12:24;20.88;;;10.50;;
18174;SDS011;9212;50.894;16.714;2022-11-04T12:15:07;22.15;;;10.73;;
18174;SDS011;9212;50.894;16.714;2022-11-04T12:17:52;21.20;;;10.90;;
18174;SDS011;9212;50.894;16.714;2022-11-04T12:20:36;25.65;;;10.70;;
18174;SDS011;9212;50.894;16.714;2022-11-04T12:23:12;21.35;;;11.55;;
18174;SDS011;9212;50.894;16.714;2022-11-04T12:25:49;26.20;;;11.13;;
18174;SDS011;9212;50.894;16.714;2022-11-04T12:28:29;19.70;;;10.77;;
18174;SDS011;9212;50.894;16.714;2022-11-04T12:31:08;25.17;;;11.73;;
18174;SDS011;9212;50.894;16.714;2022-11-04T12:33:42;21.97;;;11.30;;
18174;SDS011;9212;50.894;16.714;2022-11-04T12:36:19;22.80;;;12.47;;
18174;SDS011;9212;50.894;16.714;2022-11-04T12:39:05;22.63;;;12.13;;
18174;SDS011;9212;50.894;16.714;2022-11-04T12:41:42;19.10;;;11.30;;
18174;SDS011;9212;50.894;16.714;2022-11-04T12:44:26;20.57;;;11.67;;
18174;SDS011;9212;50.894;16.714;2022-11-04T12:47:00;26.27;;;11.70;;
18174;SDS011;9212;50.894;16.714;2022-11-04T12:49:52;21.07;;;10.73;;
18174;SDS011;9212;50.894;16.714;2022-11-04T12:52:28;21.57;;;10.23;;
18174;SDS011;9212;50.894;16.714;2022-11-04T12:55:13;25.20;;;12.37;;
18174;SDS011;9212;50.894;16.714;2022-11-04T12:57:54;23.83;;;11.23;;
18174;SDS011;9212;50.894;16.714;2022-11-04T13:00:30;21.63;;;11.27;;
18174;SDS011;9212;50.894;16.714;2022-11-04T13:03:04;24.33;;;12.20;;
18174;SDS011;9212;50.894;16.714;2022-11-04T13:05:40;25.60;;;11.50;;
18174;SDS011;9212;50.894;16.714;2022-11-04T13:08:14;18.73;;;10.53;;
18174;SDS011;9212;50.894;16.714;2022-11-04T13:10:49;22.33;;;11.27;;
18174;SDS011;9212;50.894;16.714;2022-11-04T13:13:20;21.43;;;11.07;;
18174;SDS011;9212;50.894;16.714;2022-11-04T13:15:54;24.90;;;12.33;;
18174;SDS011;9212;50.894;16.714;2022-11-04T13:18:25;21.00;;;12.00;;
18174;SDS011;9212;50.894;16.714;2022-11-04T13:20:57;23.10;;;11.43;;
18174;SDS011;9212;50.894;16.714;2022-11-04T13:23:28;22.03;;;12.80;;
18174;SDS011;9212;50.894;16.714;2022-11-04T13:26:02;28.10;;;12.80;;
18174;SDS011;9212;50.894;16.714;2022-11-04T13:28:35;24.57;;;11.53;;
18174;SDS011;9212;50.894;16.714;2022-11-04T13:31:08;22.27;;;11.97;;
18174;SDS011;9212;50.894;16.714;2022-11-04T13:33:45;28.97;;;12.90;;
18174;SDS011;9212;50.894;16.714;2022-11-04T13:36:29;26.43;;;12.13;;
18174;SDS011;9212;50.894;16.714;2022-11-04T13:39:05;26.40;;;12.13;;
18174;SDS011;9212;50.894;16.714;2022-11-04T13:44:39;27.07;;;12.13;;
18174;SDS011;9212;50.894;16.714;2022-11-04T13:47:14;23.63;;;12.40;;
18174;SDS011;9212;50.894;16.714;2022-11-04T13:49:48;27.77;;;12.90;;
18174;SDS011;9212;50.894;16.714;2022-11-04T13:52:18;26.53;;;11.80;;
18174;SDS011;9212;50.894;16.714;2022-11-04T13:54:50;29.37;;;13.87;;
18174;SDS011;9212;50.894;16.714;2022-11-04T13:57:21;24.23;;;12.23;;
18174;SDS011;9212;50.894;16.714;2022-11-04T14:00:07;22.80;;;12.30;;
18174;SDS011;9212;50.894;16.714;2022-11-04T14:02:48;25.03;;;12.33;;
18174;SDS011;9212;50.894;16.714;2022-11-04T14:08:17;26.30;;;12.67;;
18174;SDS011;9212;50.894;16.714;2022-11-04T14:10:57;24.57;;;12.73;;
18174;SDS011;9212;50.894;16.714;2022-11-04T14:16:43;25.93;;;12.60;;
18174;SDS011;9212;50.894;16.714;2022-11-04T14:22:22;25.10;;;12.83;;
18174;SDS011;9212;50.894;16.714;2022-11-04T14:24:56;25.57;;;13.10;;
18174;SDS011;9212;50.894;16.714;2022-11-04T14:27:26;27.93;;;13.00;;
18174;SDS011;9212;50.894;16.714;2022-11-04T14:29:58;24.50;;;11.87;;
18174;SDS011;9212;50.894;16.714;2022-11-04T14:32:26;22.47;;;12.30;;
18174;SDS011;9212;50.894;16.714;2022-11-04T14:34:59;22.37;;;11.90;;
18174;SDS011;9212;50.894;16.714;2022-11-04T14:37:31;25.73;;;13.03;;
18174;SDS011;9212;50.894;16.714;2022-11-04T14:40:02;24.43;;;12.17;;
18174;SDS011;9212;50.894;16.714;2022-11-04T14:42:42;24.57;;;12.00;;
18174;SDS011;9212;50.894;16.714;2022-11-04T14:45:19;30.83;;;12.97;;
18174;SDS011;9212;50.894;16.714;2022-11-04T14:47:50;25.37;;;12.90;;
18174;SDS011;9212;50.894;16.714;2022-11-04T14:50:21;27.40;;;13.60;;
18174;SDS011;9212;50.894;16.714;2022-11-04T14:52:53;27.10;;;13.07;;
18174;SDS011;9212;50.894;16.714;2022-11-04T14:55:22;27.83;;;13.37;;
18174;SDS011;9212;50.894;16.714;2022-11-04T14:57:52;26.13;;;13.23;;
18174;SDS011;9212;50.894;16.714;2022-11-04T15:00:32;28.47;;;13.27;;
18174;SDS011;9212;50.894;16.714;2022-11-04T15:03:02;30.70;;;14.47;;
18174;SDS011;9212;50.894;16.714;2022-11-04T15:05:32;30.93;;;14.60;;
18174;SDS011;9212;50.894;16.714;2022-11-04T15:08:12;28.97;;;14.43;;
18174;SDS011;9212;50.894;16.714;2022-11-04T15:10:57;38.13;;;16.30;;
18174;SDS011;9212;50.894;16.714;2022-11-04T15:13:27;32.57;;;15.50;;
18174;SDS011;9212;50.894;16.714;2022-11-04T15:15:54;30.33;;;15.33;;
18174;SDS011;9212;50.894;16.714;2022-11-04T15:18:23;34.50;;;15.87;;